createdAt,value
2022-11-12T00:01:42.703Z,11.20
2022-11-12T00:04:33.917Z,9.88
2022-11-12T00:07:25.633Z,10.48
2022-11-12T00:10:17.020Z,10.88
2022-11-12T00:13:08.188Z,10.18
2022-11-12T00:15:59.161Z,10.18
2022-11-12T00:18:50.914Z,14.07
2022-11-12T00:21:41.815Z,11.80
2022-11-12T00:24:33.090Z,12.35
2022-11-12T00:27:23.839Z,12.98
2022-11-12T00:30:15.087Z,10.83
2022-11-12T00:33:06.290Z,10.30
2022-11-12T00:35:59.501Z,10.80
2022-11-12T00:38:50.230Z,10.43
2022-11-12T00:41:42.157Z,9.93
2022-11-12T00:44:33.286Z,9.38
2022-11-12T00:47:24.437Z,9.95
2022-11-12T00:50:16.444Z,9.52
2022-11-12T00:53:07.814Z,8.15
2022-11-12T00:56:05.545Z,9.40
2022-11-12T00:58:58.039Z,7.55
2022-11-12T01:01:49.122Z,8.50
2022-11-12T01:04:40.510Z,10.02
2022-11-12T01:07:31.395Z,8.88
2022-11-12T01:10:22.807Z,6.93
2022-11-12T01:13:13.678Z,9.02
2022-11-12T01:16:08.530Z,9.32
2022-11-12T01:19:00.422Z,7.03
2022-11-12T01:21:51.806Z,7.53
2022-11-12T01:50:24.956Z,6.55
2022-11-12T01:53:15.988Z,6.85
2022-11-12T01:56:07.919Z,7.32
2022-11-12T02:07:33.247Z,6.72
2022-11-12T02:10:24.734Z,6.18
2022-11-12T02:13:35.111Z,5.63
2022-11-12T02:16:28.796Z,4.80
2022-11-12T02:19:20.685Z,5.78
2022-11-12T02:22:11.583Z,5.63
2022-11-12T02:25:02.772Z,6.82
2022-11-12T02:27:55.252Z,6.90
2022-11-12T02:30:47.876Z,6.95
2022-11-12T02:33:38.806Z,10.68
2022-11-12T02:36:30.359Z,10.03
2022-11-12T02:39:21.162Z,9.35
2022-11-12T02:42:12.428Z,11.00
2022-11-12T02:45:03.943Z,8.77
2022-11-12T02:47:55.522Z,6.05
2022-11-12T02:50:47.597Z,6.20
2022-11-12T02:53:38.957Z,8.93
2022-11-12T02:56:30.075Z,7.43
2022-11-12T02:59:21.557Z,6.55
2022-11-12T03:02:12.493Z,5.38
2022-11-12T03:05:03.714Z,5.07
2022-11-12T03:07:58.836Z,5.47
2022-11-12T03:10:50.095Z,6.07
2022-11-12T03:13:41.004Z,6.50
2022-11-12T03:16:32.580Z,5.32
2022-11-12T03:19:23.584Z,6.13
2022-11-12T03:22:14.830Z,5.68
2022-11-12T03:25:06.730Z,4.80
2022-11-12T03:28:02.507Z,4.45
2022-11-12T03:30:57.207Z,5.75
2022-11-12T03:33:48.294Z,5.20
2022-11-12T03:36:39.206Z,5.10
2022-11-12T03:39:30.822Z,4.80
2022-11-12T03:42:21.739Z,6.72
2022-11-12T03:45:12.911Z,5.70
2022-11-12T03:48:03.974Z,4.67
2022-11-12T03:50:59.262Z,5.68
2022-11-12T03:53:50.411Z,4.45
2022-11-12T03:56:41.647Z,5.00
2022-11-12T03:59:32.488Z,4.68
2022-11-12T04:02:25.854Z,4.55
2022-11-12T04:05:35.585Z,4.90
2022-11-12T04:08:38.919Z,4.93
2022-11-12T04:11:29.828Z,4.18
2022-11-12T04:14:21.601Z,5.20
2022-11-12T04:17:31.114Z,3.95
2022-11-12T04:20:41.207Z,4.25
2022-11-12T04:23:32.269Z,4.60
2022-11-12T04:26:26.248Z,3.93
2022-11-12T04:29:37.551Z,6.07
2022-11-12T04:32:30.010Z,3.72
2022-11-12T04:35:21.656Z,4.90
2022-11-12T04:38:13.213Z,3.95
2022-11-12T04:41:22.733Z,4.80
2022-11-12T05:45:03.359Z,4.88
2022-11-12T05:47:54.475Z,6.82
2022-11-12T05:51:11.311Z,6.22
2022-11-12T05:53:56.643Z,5.10
2022-11-12T05:56:47.544Z,6.40
2022-11-12T05:59:38.626Z,4.83
2022-11-12T06:02:29.440Z,5.65
2022-11-12T06:05:21.039Z,7.65
2022-11-12T06:08:11.898Z,5.35
2022-11-12T06:11:03.233Z,5.57
2022-11-12T06:13:53.986Z,5.68
2022-11-12T06:16:45.343Z,4.85
2022-11-12T06:19:36.582Z,6.95
2022-11-12T06:22:28.280Z,6.88
2022-11-12T06:25:19.283Z,6.87
2022-11-12T06:28:10.512Z,9.98
2022-11-12T06:31:01.399Z,15.63
2022-11-12T06:33:52.758Z,17.23
2022-11-12T06:39:34.969Z,8.80
2022-11-12T06:42:25.934Z,5.85
2022-11-12T06:45:17.249Z,5.88
2022-11-12T06:48:08.287Z,4.77
2022-11-12T06:51:05.768Z,5.75
2022-11-12T06:53:57.000Z,5.70
2022-11-12T06:56:48.303Z,5.38
2022-11-12T06:59:39.215Z,5.97
2022-11-12T07:02:30.474Z,6.57
2022-11-12T07:05:21.370Z,5.82
2022-11-12T07:08:12.751Z,6.82
2022-11-12T07:11:03.721Z,5.93
2022-11-12T07:13:55.046Z,4.93
2022-11-12T07:16:46.119Z,6.60
2022-11-12T07:19:37.200Z,5.40
2022-11-12T07:22:28.063Z,5.07
2022-11-12T07:25:19.434Z,4.75
2022-11-12T07:28:10.286Z,4.85
2022-11-12T07:31:03.301Z,5.88
2022-11-12T07:33:54.701Z,4.97
2022-11-12T07:36:46.119Z,5.38
2022-11-12T07:39:36.782Z,5.15
2022-11-12T07:42:27.896Z,5.80
2022-11-12T07:45:18.701Z,4.85
2022-11-12T07:48:09.998Z,5.47
2022-11-12T07:51:04.891Z,5.70
2022-11-12T07:53:59.523Z,5.28
2022-11-12T07:56:50.513Z,5.22
2022-11-12T07:59:45.877Z,3.90
2022-11-12T08:02:37.556Z,5.90
2022-11-12T08:05:28.707Z,5.33
2022-11-12T08:08:19.467Z,5.55
2022-11-12T08:11:10.943Z,5.82
2022-11-12T08:14:02.004Z,10.00
2022-11-12T08:16:53.120Z,9.13
2022-11-12T08:19:43.921Z,12.63
2022-11-12T08:22:35.123Z,13.63
2022-11-12T08:25:26.343Z,10.20
2022-11-12T08:28:17.904Z,7.30
2022-11-12T08:31:19.362Z,7.35
2022-11-12T08:34:17.262Z,4.78
2022-11-12T08:37:11.096Z,5.07
2022-11-12T08:40:02.261Z,4.60
2022-11-12T08:43:03.237Z,4.10
2022-11-12T08:45:54.492Z,3.05
2022-11-12T08:48:45.430Z,3.78
2022-11-12T08:51:36.774Z,3.33
2022-11-12T08:54:27.686Z,3.58
2022-11-12T08:57:18.892Z,2.70
2022-11-12T09:00:10.731Z,2.30
2022-11-12T09:03:05.195Z,2.20
2022-11-12T09:05:56.377Z,2.22
2022-11-12T09:08:47.933Z,2.00
2022-11-12T09:11:38.925Z,1.60
2022-11-12T09:14:30.317Z,1.95
2022-11-12T09:17:21.419Z,2.72
2022-11-12T09:20:12.752Z,2.28
2022-11-12T09:23:06.376Z,2.60
2022-11-12T09:25:58.337Z,2.10
2022-11-12T09:28:49.112Z,2.60
2022-11-12T09:31:41.158Z,1.80
2022-11-12T09:34:32.492Z,2.67
2022-11-12T09:37:27.134Z,2.80
2022-11-12T09:40:19.636Z,2.67
2022-11-12T09:43:16.735Z,2.47
2022-11-12T09:46:28.066Z,2.65
2022-11-12T09:49:19.840Z,3.42
2022-11-12T09:52:21.720Z,2.92
2022-11-12T09:55:13.022Z,3.13
2022-11-12T09:58:06.825Z,2.45
2022-11-12T10:01:01.383Z,2.28
2022-11-12T10:04:14.467Z,2.50
2022-11-12T10:07:15.158Z,2.08
2022-11-12T10:10:11.020Z,3.05
2022-11-12T10:13:17.757Z,2.55
2022-11-12T10:16:36.682Z,2.47
2022-11-12T10:19:49.960Z,2.15
2022-11-12T10:22:46.302Z,2.35
2022-11-12T10:25:37.884Z,3.00
2022-11-12T10:28:38.419Z,2.13
2022-11-12T10:31:30.012Z,2.45
2022-11-12T10:34:29.184Z,2.67
2022-11-12T10:37:23.785Z,2.55
2022-11-12T10:40:21.134Z,2.53
2022-11-12T10:43:18.237Z,2.22
2022-11-12T10:46:28.784Z,2.35
2022-11-12T10:49:20.000Z,2.70
2022-11-12T10:52:24.499Z,1.88
2022-11-12T10:55:20.340Z,2.05
2022-11-12T10:58:11.637Z,2.05
2022-11-12T11:01:04.745Z,2.80
2022-11-12T11:03:58.846Z,2.17
2022-11-12T11:06:58.061Z,2.50
2022-11-12T11:09:56.412Z,2.53
2022-11-12T11:12:47.625Z,3.78
2022-11-12T11:15:38.976Z,2.80
2022-11-12T11:21:24.791Z,1.70
2022-11-12T11:24:19.277Z,1.88
2022-11-12T11:27:10.260Z,1.70
2022-11-12T11:30:09.374Z,1.97
2022-11-12T11:33:05.676Z,3.00
2022-11-12T11:36:18.208Z,3.55
2022-11-12T11:39:12.135Z,3.67
2022-11-12T11:42:22.240Z,2.40
2022-11-12T11:45:23.684Z,2.63
2022-11-12T11:48:33.539Z,2.08
2022-11-12T11:51:26.152Z,2.03
2022-11-12T11:54:20.979Z,1.95
2022-11-12T11:57:15.677Z,1.40
2022-11-12T12:00:10.385Z,2.42
2022-11-12T12:03:07.573Z,2.65
2022-11-12T12:06:17.943Z,1.80
2022-11-12T12:09:12.324Z,2.42
2022-11-12T12:12:27.252Z,3.10
2022-11-12T12:15:18.506Z,2.60
2022-11-12T12:18:35.058Z,1.63
2022-11-12T12:21:28.896Z,2.13
2022-11-12T12:24:23.735Z,3.20
2022-11-12T12:27:17.283Z,2.45
2022-11-12T12:30:18.871Z,1.85
2022-11-12T12:33:09.727Z,2.20
2022-11-12T12:36:10.006Z,1.98
2022-11-12T12:39:10.397Z,1.77
2022-11-12T12:42:05.794Z,2.05
2022-11-12T12:45:06.064Z,1.88
2022-11-12T12:47:57.750Z,1.63
2022-11-12T12:50:50.448Z,1.70
2022-11-12T12:53:41.943Z,2.10
2022-11-12T12:56:32.929Z,2.20
2022-11-12T12:59:24.777Z,1.90
2022-11-12T13:05:22.342Z,2.13
2022-11-12T13:08:14.450Z,2.35
2022-11-12T13:11:05.966Z,2.10
2022-11-12T13:13:56.907Z,1.90
2022-11-12T13:16:54.167Z,1.90
2022-11-12T13:19:44.841Z,1.95
2022-11-12T13:22:38.940Z,2.53
2022-11-12T13:25:31.163Z,2.83
2022-11-12T13:28:22.490Z,2.85
2022-11-12T13:31:29.413Z,2.63
2022-11-12T13:34:29.518Z,2.58
2022-11-12T13:37:21.358Z,2.30
2022-11-12T13:40:15.008Z,2.13
2022-11-12T13:43:12.434Z,2.13
2022-11-12T13:46:12.920Z,2.53
2022-11-12T13:49:07.273Z,2.25
2022-11-12T13:51:59.482Z,2.05
2022-11-12T13:55:02.054Z,2.53
2022-11-12T13:57:54.998Z,3.63
2022-11-12T14:01:00.014Z,2.20
2022-11-12T14:03:52.422Z,1.92
2022-11-12T14:09:34.601Z,2.38
2022-11-12T14:12:25.862Z,3.03
2022-11-12T14:15:17.101Z,3.00
2022-11-12T14:18:14.454Z,1.33
2022-11-12T14:21:07.196Z,1.88
2022-11-12T14:23:58.457Z,1.88
2022-11-12T14:26:49.879Z,2.00
2022-11-12T14:29:43.695Z,2.30
2022-11-12T14:32:36.202Z,2.30
2022-11-12T14:38:27.554Z,2.22
2022-11-12T14:41:29.216Z,2.40
2022-11-12T14:44:22.171Z,1.73
2022-11-12T14:47:13.136Z,2.00
2022-11-12T14:50:04.514Z,4.10
2022-11-12T14:53:25.193Z,2.20
2022-11-12T14:56:23.076Z,2.17
2022-11-12T14:59:14.937Z,2.88
2022-11-12T15:05:24.034Z,4.18
2022-11-12T15:08:28.120Z,3.80
2022-11-12T15:11:31.430Z,5.07
2022-11-12T15:14:27.279Z,6.22
2022-11-12T15:17:37.444Z,6.40
2022-11-12T15:20:28.683Z,7.07
2022-11-12T15:23:20.236Z,6.25
2022-11-12T15:26:14.905Z,5.88
2022-11-12T15:29:12.028Z,6.90
2022-11-12T15:32:14.018Z,9.07
2022-11-12T15:35:05.252Z,10.85
2022-11-12T15:37:56.524Z,13.25
2022-11-12T15:40:57.146Z,7.78
2022-11-12T15:43:49.042Z,10.30
2022-11-12T15:46:40.195Z,14.50
2022-11-12T15:49:31.792Z,15.23
2022-11-12T15:52:23.412Z,14.50
2022-11-12T15:55:15.435Z,17.90
2022-11-12T15:58:18.114Z,19.48
2022-11-12T16:01:12.026Z,10.73
2022-11-12T16:04:03.179Z,9.63
2022-11-12T16:06:54.603Z,8.25
2022-11-12T16:09:45.391Z,10.45
2022-11-12T16:12:36.584Z,12.40
2022-11-12T16:15:27.578Z,11.70
2022-11-12T16:18:19.089Z,14.80
2022-11-12T16:21:10.047Z,19.33
2022-11-12T16:24:01.405Z,14.80
2022-11-12T16:26:52.525Z,16.02
2022-11-12T16:29:43.855Z,14.82
2022-11-12T16:32:34.824Z,17.25
2022-11-12T16:35:30.159Z,19.83
2022-11-12T16:38:21.793Z,12.88
2022-11-12T16:44:03.815Z,12.77
2022-11-12T16:46:55.141Z,13.40
2022-11-12T16:49:46.162Z,14.30
2022-11-12T16:52:37.823Z,17.73
2022-11-12T16:55:28.752Z,23.43
2022-11-12T16:58:19.963Z,15.43
2022-11-12T17:01:14.451Z,17.50
2022-11-12T17:04:05.610Z,17.65
2022-11-12T17:06:56.454Z,19.25
2022-11-12T17:09:48.248Z,21.35
2022-11-12T17:12:39.357Z,21.40
2022-11-12T17:15:30.778Z,24.80
2022-11-12T17:18:21.678Z,32.25
2022-11-12T17:21:14.402Z,46.08
2022-11-12T17:24:05.327Z,116.30
2022-11-12T17:26:57.819Z,101.75
2022-11-12T17:29:48.983Z,58.10
2022-11-12T17:32:40.503Z,80.53
2022-11-12T17:35:33.232Z,55.10
2022-11-12T17:38:24.521Z,35.42
2022-11-12T17:41:15.814Z,36.53
2022-11-12T17:46:58.499Z,51.03
2022-11-12T17:49:49.876Z,48.22
2022-11-12T17:52:40.678Z,44.70
2022-11-12T17:55:31.960Z,34.10
2022-11-12T17:58:22.855Z,35.83
2022-11-12T18:01:21.731Z,32.30
2022-11-12T18:04:13.137Z,31.33
2022-11-12T18:07:04.492Z,31.73
2022-11-12T18:09:55.858Z,32.38
2022-11-12T18:12:46.949Z,26.83
2022-11-12T18:15:38.273Z,25.58
2022-11-12T18:18:30.150Z,25.67
2022-11-12T18:21:21.039Z,28.88
2022-11-12T18:24:13.731Z,27.15
2022-11-12T18:27:04.810Z,37.22
2022-11-12T18:29:56.071Z,32.92
2022-11-12T18:32:46.843Z,26.20
2022-11-12T18:35:38.128Z,28.33
2022-11-12T18:38:29.612Z,32.28
2022-11-12T18:41:27.201Z,30.50
2022-11-12T18:44:21.981Z,37.05
2022-11-12T18:47:15.980Z,26.70
2022-11-12T18:50:08.801Z,25.50
2022-11-12T18:53:00.540Z,25.88
2022-11-12T18:55:51.733Z,26.08
2022-11-12T18:58:43.044Z,30.08
2022-11-12T19:01:34.759Z,27.65
2022-11-12T19:04:26.578Z,19.63
2022-11-12T19:07:17.814Z,35.17
2022-11-12T19:10:14.588Z,34.92
2022-11-12T19:13:07.004Z,33.13
2022-11-12T19:18:49.620Z,36.55
2022-11-12T19:21:41.236Z,36.95
2022-11-12T19:24:32.470Z,35.95
2022-11-12T19:27:23.696Z,35.40
2022-11-12T19:30:14.632Z,35.47
2022-11-12T19:33:06.020Z,47.42
2022-11-12T19:35:56.874Z,59.72
2022-11-12T19:38:48.442Z,40.47
2022-11-12T19:41:39.353Z,37.47
2022-11-12T19:44:30.703Z,35.47
2022-11-12T19:47:21.724Z,27.80
2022-11-12T19:50:13.117Z,24.75
2022-11-12T19:53:04.839Z,27.53
2022-11-12T19:55:59.641Z,26.90
2022-11-12T19:58:50.617Z,25.42
2022-11-12T20:01:42.358Z,35.88
2022-11-12T20:04:33.305Z,34.70
2022-11-12T20:07:25.498Z,29.33
2022-11-12T20:10:20.524Z,27.45
2022-11-12T20:13:11.556Z,22.83
2022-11-12T20:16:09.149Z,20.70
2022-11-12T20:19:01.801Z,20.40
2022-11-12T20:21:52.769Z,22.70
2022-11-12T20:24:44.101Z,24.90
2022-11-12T20:27:34.965Z,25.08
2022-11-12T20:30:26.295Z,26.73
2022-11-12T20:33:17.523Z,34.77
2022-11-12T20:36:10.480Z,40.88
2022-11-12T20:39:02.495Z,43.15
2022-11-12T20:41:54.108Z,44.83
2022-11-12T20:44:44.787Z,43.30
2022-11-12T20:47:35.860Z,50.63
2022-11-12T20:50:26.839Z,43.80
2022-11-12T20:53:17.972Z,38.53
2022-11-12T20:56:11.057Z,34.45
2022-11-12T20:59:02.125Z,49.47
2022-11-12T21:01:52.842Z,42.25
2022-11-12T21:04:44.341Z,44.28
2022-11-12T21:07:35.510Z,32.97
2022-11-12T21:10:27.358Z,34.03
2022-11-12T21:13:18.613Z,32.35
2022-11-12T21:16:10.473Z,33.72
2022-11-12T21:19:02.063Z,25.75
2022-11-12T21:21:53.761Z,34.47
2022-11-12T21:24:44.792Z,32.90
2022-11-12T21:27:36.054Z,24.85
2022-11-12T21:30:27.058Z,26.27
2022-11-12T21:33:18.412Z,20.27
2022-11-12T21:36:15.938Z,18.30
2022-11-12T21:39:08.887Z,17.23
2022-11-12T21:41:59.946Z,19.55
2022-11-12T21:44:51.328Z,20.30
2022-11-12T21:47:43.226Z,19.48
2022-11-12T21:50:34.863Z,18.30
2022-11-12T21:53:29.886Z,17.63
2022-11-12T21:56:22.925Z,16.02
2022-11-12T21:59:15.391Z,15.60
2022-11-12T22:02:07.153Z,18.27
2022-11-12T22:04:57.903Z,19.08
2022-11-12T22:07:49.038Z,17.30
2022-11-12T22:10:39.898Z,12.15
2022-11-12T22:13:31.431Z,7.15
2022-11-12T22:16:23.221Z,15.27
2022-11-12T22:19:16.288Z,12.00
2022-11-12T22:22:07.273Z,12.40
2022-11-12T22:24:58.463Z,11.15
2022-11-12T22:27:49.286Z,12.13
2022-11-12T22:30:40.356Z,11.50
2022-11-12T22:33:31.297Z,11.60
2022-11-12T22:36:23.615Z,12.55
2022-11-12T22:39:14.472Z,10.93
2022-11-12T22:42:06.267Z,8.88
2022-11-12T22:44:57.386Z,10.73
2022-11-12T22:47:48.618Z,9.88
2022-11-12T22:50:39.503Z,10.38
2022-11-12T22:53:31.164Z,11.23
2022-11-12T22:56:23.132Z,10.88
2022-11-12T22:59:14.744Z,10.93
2022-11-12T23:02:08.198Z,9.35
2022-11-12T23:04:59.424Z,8.90
2022-11-12T23:07:50.704Z,10.65
2022-11-12T23:10:45.843Z,11.27
2022-11-12T23:13:37.415Z,12.18
2022-11-12T23:16:32.525Z,13.52
2022-11-12T23:19:24.131Z,12.23
2022-11-12T23:22:15.342Z,13.75
2022-11-12T23:25:06.404Z,11.10
2022-11-12T23:27:57.775Z,10.88
2022-11-12T23:30:50.196Z,12.80
2022-11-12T23:33:46.138Z,11.82
2022-11-12T23:36:36.990Z,11.52
2022-11-12T23:39:28.050Z,12.00
2022-11-12T23:42:18.919Z,12.95
2022-11-12T23:45:10.349Z,11.43
2022-11-12T23:48:01.473Z,15.27
2022-11-12T23:50:59.900Z,17.17
2022-11-12T23:53:51.387Z,15.18
2022-11-12T23:56:42.791Z,13.95
2022-11-12T23:59:33.584Z,11.82
